Time;durP1;ratioP1;P1;durP2;ratioP2;P2;SDS_P1;SDS_P2;PMS_P1;PMS_P2;Temp;Humidity;BMP_temperature;BMP_pressure;BME280_temperature;BME280_humidity;BME280_pressure;Samples;Min_cycle;Max_cycle;Signal;HPM_P1;HPM_P2
2022/01/07 00:00:08;;;;;;;16.77;6.57;;;3.50;99.90;;;;;;5032749;28;20033;-80
2022/01/07 00:02:33;;;;;;;18.25;6.25;;;3.40;99.90;;;;;;5032437;28;20038;-81
2022/01/07 00:04:59;;;;;;;16.90;6.20;;;3.40;99.90;;;;;;5016018;28;20049;-81
2022/01/07 00:07:24;;;;;;;15.20;6.38;;;3.40;99.90;;;;;;5032947;28;20033;-80
2022/01/07 00:09:50;;;;;;;16.45;6.03;;;3.50;99.90;;;;;;5016458;28;20071;-79
2022/01/07 00:12:19;;;;;;;17.73;5.88;;;3.40;99.90;;;;;;5032646;28;20042;-78
2022/01/07 00:14:45;;;;;;;14.18;5.45;;;3.40;99.90;;;;;;5032352;28;20073;-80
2022/01/07 00:17:10;;;;;;;15.75;5.38;;;3.40;99.90;;;;;;5031886;28;20065;-80
2022/01/07 00:19:36;;;;;;;13.85;5.85;;;3.40;99.90;;;;;;5031891;28;20045;-80
2022/01/07 00:22:02;;;;;;;16.17;5.93;;;3.40;99.90;;;;;;5016616;28;20101;-81
2022/01/07 00:24:27;;;;;;;14.23;6.03;;;3.30;99.90;;;;;;5032214;28;20040;-80
2022/01/07 00:26:53;;;;;;;16.13;6.30;;;3.40;99.90;;;;;;5015807;28;20044;-79
2022/01/07 00:29:18;;;;;;;14.63;5.95;;;3.30;99.90;;;;;;5016461;28;20144;-79
2022/01/07 00:31:44;;;;;;;14.38;5.85;;;3.30;99.90;;;;;;5032509;28;20124;-80
2022/01/07 00:34:09;;;;;;;17.30;5.97;;;3.30;99.90;;;;;;5032337;28;20136;-79
2022/01/07 00:36:35;;;;;;;20.63;6.30;;;3.30;99.90;;;;;;5021895;28;20033;-80
2022/01/07 00:39:00;;;;;;;14.77;6.50;;;3.20;99.90;;;;;;5032265;28;20087;-81
2022/01/07 00:41:26;;;;;;;13.02;6.10;;;3.20;99.90;;;;;;5032296;28;20168;-82
2022/01/07 00:43:51;;;;;;;15.07;5.97;;;3.10;99.90;;;;;;5031652;28;20491;-80
2022/01/07 00:46:19;;;;;;;11.70;5.95;;;3.10;99.90;;;;;;5031649;28;20045;-79
2022/01/07 00:48:44;;;;;;;12.60;6.28;;;3.00;99.90;;;;;;5031980;28;20037;-81
2022/01/07 00:51:10;;;;;;;15.88;6.63;;;3.00;99.90;;;;;;5032336;28;20407;-81
2022/01/07 00:53:36;;;;;;;17.33;6.22;;;2.90;99.90;;;;;;5028839;28;20121;-81
2022/01/07 00:56:02;;;;;;;15.88;6.50;;;2.90;99.90;;;;;;5031204;28;20515;-81
2022/01/07 00:58:27;;;;;;;15.50;5.95;;;2.80;99.90;;;;;;5029519;28;20033;-78
2022/01/07 01:00:53;;;;;;;13.35;6.32;;;2.80;99.90;;;;;;5024562;28;20107;-80
2022/01/07 01:03:18;;;;;;;12.68;6.13;;;2.80;99.90;;;;;;5031563;28;20464;-81
2022/01/07 01:05:45;;;;;;;14.15;7.00;;;2.70;99.90;;;;;;5031680;28;20099;-80
2022/01/07 01:08:11;;;;;;;16.52;6.53;;;2.70;99.90;;;;;;5032189;28;20080;-80
2022/01/07 01:10:37;;;;;;;13.63;6.72;;;2.70;99.90;;;;;;5031791;28;20091;-80
2022/01/07 01:13:03;;;;;;;18.42;6.68;;;2.60;99.90;;;;;;5014526;28;20042;-81
2022/01/07 01:15:29;;;;;;;15.50;7.00;;;2.60;99.90;;;;;;5031558;28;20033;-80
2022/01/07 01:17:57;;;;;;;13.68;6.88;;;2.60;99.90;;;;;;5015263;28;20049;-80
2022/01/07 01:20:23;;;;;;;15.23;6.93;;;2.60;99.90;;;;;;5030574;28;20099;-80
2022/01/07 01:22:49;;;;;;;13.95;6.57;;;2.60;99.90;;;;;;5015231;28;20083;-80
2022/01/07 01:25:15;;;;;;;14.43;6.38;;;2.50;99.90;;;;;;5030472;28;20621;-81
2022/01/07 01:27:41;;;;;;;13.85;6.43;;;2.50;99.90;;;;;;5030166;28;20045;-80
2022/01/07 01:30:10;;;;;;;15.00;6.55;;;2.50;99.90;;;;;;5014551;28;20038;-80
2022/01/07 01:32:36;;;;;;;15.25;6.65;;;2.50;99.90;;;;;;5031462;28;20518;-81
2022/01/07 01:35:03;;;;;;;13.50;6.13;;;2.50;99.90;;;;;;5031430;28;20142;-80
2022/01/07 01:37:30;;;;;;;14.43;7.00;;;2.50;99.90;;;;;;5031108;28;20037;-81
2022/01/07 01:39:56;;;;;;;14.52;6.55;;;2.50;99.90;;;;;;5015109;28;20033;-80
2022/01/07 01:42:22;;;;;;;11.85;6.95;;;2.50;99.90;;;;;;5031546;28;20525;-80
2022/01/07 01:44:47;;;;;;;16.90;7.10;;;2.50;99.90;;;;;;5030353;28;20065;-81
2022/01/07 01:47:13;;;;;;;14.38;7.28;;;2.40;99.90;;;;;;5031553;28;20068;-80
2022/01/07 01:49:39;;;;;;;16.10;7.03;;;2.40;99.90;;;;;;5031763;28;20072;-79
2022/01/07 01:52:05;;;;;;;14.55;7.97;;;2.40;99.90;;;;;;5031234;28;20037;-80
2022/01/07 01:54:31;;;;;;;17.30;7.20;;;2.40;99.90;;;;;;5030494;28;20124;-80
2022/01/07 01:56:56;;;;;;;18.38;7.55;;;2.30;99.90;;;;;;5031392;28;20068;-80
2022/01/07 01:59:24;;;;;;;14.63;7.37;;;2.40;99.90;;;;;;5029804;28;20037;-79
2022/01/07 02:01:50;;;;;;;15.70;7.50;;;2.30;99.90;;;;;;5030567;28;20644;-80
2022/01/07 02:04:15;;;;;;;15.23;6.97;;;2.30;99.90;;;;;;5030622;28;20132;-79
2022/01/07 02:06:41;;;;;;;14.65;7.45;;;2.40;99.90;;;;;;5031331;28;20084;-80
2022/01/07 02:09:07;;;;;;;14.63;7.35;;;2.30;99.90;;;;;;5030084;28;20124;-79
2022/01/07 02:11:34;;;;;;;16.05;7.72;;;2.30;99.90;;;;;;5030136;28;20029;-79
2022/01/07 02:13:59;;;;;;;14.10;7.60;;;2.30;99.90;;;;;;5030062;28;20521;-79
2022/01/07 02:16:26;;;;;;;11.90;7.83;;;2.30;99.90;;;;;;5030029;28;20042;-79
2022/01/07 02:18:52;;;;;;;14.45;7.40;;;2.30;99.90;;;;;;5030592;28;20037;-79
2022/01/07 02:21:18;;;;;;;14.25;7.90;;;2.40;99.90;;;;;;5013791;28;20047;-80
2022/01/07 02:23:43;;;;;;;12.82;7.78;;;2.30;99.90;;;;;;5030566;28;20425;-80
2022/01/07 02:26:11;;;;;;;14.60;7.82;;;2.30;99.90;;;;;;5030450;28;20049;-79
2022/01/07 02:28:36;;;;;;;15.23;8.23;;;2.40;99.90;;;;;;5029023;28;20091;-79
2022/01/07 02:31:02;;;;;;;14.40;8.52;;;2.30;99.90;;;;;;5029722;28;20041;-80
2022/01/07 02:33:28;;;;;;;15.70;8.88;;;2.40;99.90;;;;;;5031440;28;20049;-80
2022/01/07 02:35:54;;;;;;;15.53;8.47;;;2.40;99.90;;;;;;5030725;28;20052;-80
2022/01/07 02:38:19;;;;;;;12.23;8.17;;;2.40;99.90;;;;;;5014809;28;20037;-80
2022/01/07 02:40:45;;;;;;;12.25;7.93;;;2.30;99.90;;;;;;5014060;28;20043;-79
2022/01/07 02:43:11;;;;;;;11.75;8.02;;;2.40;99.90;;;;;;5030900;28;20091;-79
2022/01/07 02:45:37;;;;;;;14.20;8.60;;;2.40;99.90;;;;;;5029599;28;20415;-80
2022/01/07 02:48:03;;;;;;;14.23;9.10;;;2.40;99.90;;;;;;5030538;28;20208;-80
2022/01/07 02:50:37;;;;;;;14.83;8.13;;;2.40;99.90;;;;;;5030740;28;20438;-79
2022/01/07 02:53:09;;;;;;;14.37;8.70;;;2.40;99.90;;;;;;5030620;28;20084;-79
2022/01/07 02:55:36;;;;;;;13.10;8.67;;;2.40;99.90;;;;;;5030196;28;20057;-80
2022/01/07 02:58:01;;;;;;;14.63;9.37;;;2.30;99.90;;;;;;5029733;28;20040;-80
2022/01/07 03:00:28;;;;;;;13.85;8.50;;;2.40;99.90;;;;;;5030896;28;20041;-81
2022/01/07 03:02:55;;;;;;;14.30;8.23;;;2.40;99.90;;;;;;5030334;28;20041;-80
2022/01/07 03:05:21;;;;;;;15.55;8.15;;;2.40;99.90;;;;;;5030448;28;20033;-79
2022/01/07 03:07:48;;;;;;;13.33;9.03;;;2.40;99.90;;;;;;5030405;28;20041;-80
2022/01/07 03:10:26;;;;;;;15.27;8.80;;;2.30;99.90;;;;;;5013280;28;20507;-79
2022/01/07 03:12:53;;;;;;;14.20;9.20;;;2.30;99.90;;;;;;5030051;28;20037;-79
2022/01/07 03:15:18;;;;;;;14.03;9.10;;;2.30;99.90;;;;;;5030158;28;20045;-80
2022/01/07 03:17:44;;;;;;;12.20;8.50;;;2.30;99.90;;;;;;5030052;28;20045;-79
2022/01/07 03:20:13;;;;;;;15.10;9.20;;;2.30;99.90;;;;;;5030242;28;20088;-78
2022/01/07 03:22:39;;;;;;;15.07;9.23;;;2.30;99.90;;;;;;5030138;28;20487;-80
2022/01/07 03:25:06;;;;;;;14.70;9.27;;;2.30;99.90;;;;;;5029065;28;20041;-79
2022/01/07 03:27:32;;;;;;;14.65;9.63;;;2.30;99.90;;;;;;5012217;28;20414;-79
2022/01/07 03:29:57;;;;;;;15.65;9.18;;;2.30;99.90;;;;;;5029674;28;20042;-80
2022/01/07 03:32:24;;;;;;;16.63;9.63;;;2.30;99.90;;;;;;5013431;28;20025;-79
2022/01/07 03:34:53;;;;;;;15.13;9.97;;;2.30;99.90;;;;;;5013097;28;20117;-79
2022/01/07 03:37:18;;;;;;;15.00;9.63;;;2.30;99.90;;;;;;5030182;28;20037;-79
2022/01/07 03:39:44;;;;;;;15.63;10.23;;;2.30;99.90;;;;;;5030272;28;20392;-79
2022/01/07 03:42:10;;;;;;;18.20;10.60;;;2.30;99.90;;;;;;5030892;28;20103;-80
2022/01/07 03:44:35;;;;;;;16.70;11.23;;;2.30;99.90;;;;;;5016644;28;20048;-79
2022/01/07 03:47:02;;;;;;;15.18;10.45;;;2.30;99.90;;;;;;5033332;28;20045;-79
2022/01/07 03:49:28;;;;;;;16.05;9.93;;;2.40;99.90;;;;;;5033323;28;20107;-79
2022/01/07 03:51:53;;;;;;;16.85;10.52;;;2.40;99.90;;;;;;5033394;28;20033;-80
2022/01/07 03:54:19;;;;;;;19.07;10.47;;;2.40;99.90;;;;;;5017449;28;20041;-79
2022/01/07 03:56:44;;;;;;;15.02;10.88;;;2.40;99.90;;;;;;5033329;28;20038;-80
2022/01/07 03:59:10;;;;;;;14.25;11.00;;;2.40;99.90;;;;;;5033587;28;20516;-79
2022/01/07 04:01:35;;;;;;;19.23;10.87;;;2.50;99.90;;;;;;5033146;28;20045;-80
2022/01/07 04:04:01;;;;;;;15.05;10.57;;;2.40;99.90;;;;;;5032924;28;20042;-79
2022/01/07 04:06:26;;;;;;;14.82;10.13;;;2.40;99.90;;;;;;5033575;28;20128;-79
2022/01/07 04:08:52;;;;;;;14.75;10.10;;;2.40;99.90;;;;;;5033332;28;20056;-80
2022/01/07 04:11:18;;;;;;;16.17;10.53;;;2.40;99.90;;;;;;5032029;28;20037;-80
2022/01/07 04:13:44;;;;;;;15.82;10.18;;;2.40;99.90;;;;;;5032863;28;20068;-79
2022/01/07 04:16:11;;;;;;;13.60;9.68;;;2.40;99.90;;;;;;5032734;28;20069;-79
2022/01/07 04:18:37;;;;;;;15.45;9.82;;;2.50;99.90;;;;;;5032945;28;20041;-80
2022/01/07 04:21:03;;;;;;;17.27;10.10;;;2.40;99.90;;;;;;5033148;28;20432;-80
2022/01/07 04:23:29;;;;;;;18.40;10.17;;;2.50;99.90;;;;;;5016879;28;20045;-79
2022/01/07 04:25:54;;;;;;;15.17;10.33;;;2.50;99.90;;;;;;5032355;28;20048;-79
2022/01/07 04:28:20;;;;;;;14.57;10.27;;;2.50;99.90;;;;;;5030934;28;20041;-79
2022/01/07 04:30:46;;;;;;;16.13;9.85;;;2.50;99.90;;;;;;5032090;28;20786;-79
2022/01/07 04:33:15;;;;;;;16.50;9.65;;;2.50;99.90;;;;;;5032668;28;20124;-80
2022/01/07 04:35:42;;;;;;;13.60;10.40;;;2.50;99.90;;;;;;5032689;28;20084;-79
2022/01/07 04:38:09;;;;;;;14.82;10.32;;;2.50;99.90;;;;;;5032191;28;20033;-80
2022/01/07 04:40:35;;;;;;;15.70;10.30;;;2.50;99.90;;;;;;5033249;28;20033;-80
2022/01/07 04:43:03;;;;;;;12.40;9.57;;;2.50;99.90;;;;;;5032648;28;20143;-79
2022/01/07 04:45:28;;;;;;;15.15;10.25;;;2.50;99.90;;;;;;5032145;28;20103;-79
2022/01/07 04:47:54;;;;;;;16.60;10.52;;;2.60;99.90;;;;;;5015995;28;20041;-80
2022/01/07 04:50:21;;;;;;;16.83;10.88;;;2.60;99.90;;;;;;5032330;28;20041;-80
2022/01/07 04:52:48;;;;;;;16.80;10.32;;;2.60;99.90;;;;;;5015847;28;20045;-79
2022/01/07 04:55:17;;;;;;;13.20;9.90;;;2.60;99.90;;;;;;5031764;28;20411;-80
2022/01/07 04:57:44;;;;;;;16.13;11.35;;;2.60;99.90;;;;;;5032198;28;20042;-78
2022/01/07 05:00:10;;;;;;;17.08;10.85;;;2.60;99.90;;;;;;5015329;28;20033;-79
2022/01/07 05:02:36;;;;;;;17.55;11.18;;;2.60;99.90;;;;;;5015068;28;20033;-80
2022/01/07 05:05:02;;;;;;;15.02;10.25;;;2.60;99.90;;;;;;5031668;28;20045;-80
2022/01/07 05:07:27;;;;;;;14.57;11.20;;;2.70;99.90;;;;;;5032543;28;20467;-80
2022/01/07 05:09:53;;;;;;;15.88;10.57;;;2.70;99.90;;;;;;5032124;28;20061;-79
2022/01/07 05:12:18;;;;;;;13.65;10.70;;;2.70;99.90;;;;;;5032231;28;20080;-79
2022/01/07 05:14:44;;;;;;;16.23;10.57;;;2.70;99.90;;;;;;5015315;28;20125;-79
2022/01/07 05:17:10;;;;;;;15.57;10.90;;;2.70;99.90;;;;;;5032040;28;20518;-78
2022/01/07 05:19:35;;;;;;;17.93;10.93;;;2.70;99.90;;;;;;5030944;28;20040;-79
2022/01/07 05:22:01;;;;;;;15.70;11.35;;;2.70;99.90;;;;;;5015518;28;20040;-80
2022/01/07 05:24:26;;;;;;;15.32;9.80;;;2.70;99.90;;;;;;5031696;28;20053;-80
2022/01/07 05:26:52;;;;;;;15.63;10.73;;;2.80;99.90;;;;;;5031550;28;20044;-80
2022/01/07 05:29:18;;;;;;;14.13;10.73;;;2.80;99.90;;;;;;5031488;28;20052;-80
2022/01/07 05:31:44;;;;;;;15.07;10.35;;;2.80;99.90;;;;;;5030380;28;20087;-80
2022/01/07 05:34:09;;;;;;;14.60;10.50;;;2.80;99.90;;;;;;5030114;28;20049;-80
2022/01/07 05:36:37;;;;;;;14.65;9.93;;;2.80;99.90;;;;;;5030278;28;20458;-80
2022/01/07 05:39:02;;;;;;;15.73;11.73;;;2.80;99.90;;;;;;5030366;28;20107;-80
2022/01/07 05:41:28;;;;;;;13.88;10.18;;;2.80;99.90;;;;;;5029435;28;20483;-79
2022/01/07 05:43:53;;;;;;;14.55;10.30;;;2.90;99.90;;;;;;5029370;28;20156;-80
2022/01/07 05:46:19;;;;;;;15.15;10.77;;;2.80;99.90;;;;;;5030262;28;20034;-81
2022/01/07 05:48:46;;;;;;;16.17;10.38;;;2.90;99.90;;;;;;5030563;28;20048;-79
2022/01/07 05:51:13;;;;;;;13.63;9.93;;;2.90;99.90;;;;;;5029737;28;20414;-80
2022/01/07 05:53:39;;;;;;;17.15;9.90;;;2.80;99.90;;;;;;5030145;28;20519;-81
2022/01/07 05:56:05;;;;;;;15.07;10.43;;;2.90;99.90;;;;;;5029804;28;20030;-80
2022/01/07 05:58:31;;;;;;;11.55;8.55;;;2.90;99.90;;;;;;5029740;28;20061;-79
2022/01/07 06:00:57;;;;;;;12.60;10.07;;;2.90;99.90;;;;;;5029590;28;20187;-80
2022/01/07 06:03:22;;;;;;;14.57;10.52;;;2.90;99.90;;;;;;5029305;28;20081;-81
2022/01/07 06:05:48;;;;;;;15.50;9.43;;;2.90;99.90;;;;;;5029383;28;20406;-80
2022/01/07 06:08:14;;;;;;;13.05;9.40;;;2.90;99.90;;;;;;5027113;28;20048;-80
2022/01/07 06:10:40;;;;;;;14.63;10.07;;;2.90;99.90;;;;;;5029724;28;20116;-80
2022/01/07 06:13:05;;;;;;;14.95;9.45;;;2.90;99.90;;;;;;5029078;28;20036;-80
2022/01/07 06:15:31;;;;;;;16.38;11.30;;;2.90;99.90;;;;;;5028060;28;20078;-81
2022/01/07 06:17:56;;;;;;;15.98;9.98;;;2.90;99.90;;;;;;5028617;28;20033;-81
2022/01/07 06:20:22;;;;;;;13.38;9.93;;;2.90;99.90;;;;;;5030882;28;20490;-80
2022/01/07 06:22:48;;;;;;;14.18;10.60;;;2.90;99.90;;;;;;5029864;28;20041;-81
2022/01/07 06:25:14;;;;;;;14.82;10.45;;;2.90;99.90;;;;;;5030636;28;20040;-80
2022/01/07 06:27:39;;;;;;;15.48;10.10;;;2.90;99.90;;;;;;5030224;28;20052;-81
2022/01/07 06:30:07;;;;;;;14.52;10.07;;;2.90;99.90;;;;;;5028183;28;20030;-82
2022/01/07 06:32:33;;;;;;;13.68;9.98;;;2.90;99.90;;;;;;5029373;28;20124;-80
2022/01/07 06:34:59;;;;;;;15.40;10.50;;;2.90;99.90;;;;;;5029186;28;20030;-81
2022/01/07 06:37:24;;;;;;;15.63;10.68;;;2.90;99.90;;;;;;5029259;28;20083;-79
2022/01/07 06:39:50;;;;;;;13.10;10.05;;;2.90;99.90;;;;;;5029904;28;20787;-79
2022/01/07 06:42:15;;;;;;;12.98;9.45;;;2.90;99.90;;;;;;5030295;28;20069;-80
2022/01/07 06:44:41;;;;;;;15.23;11.13;;;2.90;99.90;;;;;;5029225;28;20456;-80
2022/01/07 06:47:06;;;;;;;13.38;9.70;;;2.90;99.90;;;;;;5013111;28;20446;-78
2022/01/07 06:49:32;;;;;;;13.23;9.88;;;2.90;99.90;;;;;;5029034;28;20059;-79
2022/01/07 06:51:58;;;;;;;16.25;10.93;;;2.90;99.90;;;;;;5029813;28;20091;-79
2022/01/07 06:54:25;;;;;;;15.13;10.90;;;2.90;99.90;;;;;;5028319;28;20103;-79
2022/01/07 06:56:50;;;;;;;16.73;10.73;;;2.90;99.90;;;;;;5029225;28;20049;-78
2022/01/07 06:59:16;;;;;;;13.82;10.32;;;2.90;99.90;;;;;;5029272;28;20033;-80
2022/01/07 07:01:43;;;;;;;16.25;11.40;;;2.90;99.90;;;;;;5027589;28;20045;-80
2022/01/07 07:04:08;;;;;;;14.55;11.02;;;2.90;99.90;;;;;;5029649;28;20160;-80
2022/01/07 07:06:34;;;;;;;17.10;11.30;;;3.00;99.90;;;;;;5029275;28;20069;-81
2022/01/07 07:09:01;;;;;;;12.52;10.25;;;3.00;99.90;;;;;;5028287;28;20049;-81
2022/01/07 07:11:27;;;;;;;18.88;11.93;;;3.00;99.90;;;;;;5029447;28;20045;-81
2022/01/07 07:13:52;;;;;;;16.50;12.20;;;3.00;99.90;;;;;;5028249;28;20232;-80
2022/01/07 07:16:18;;;;;;;17.70;11.52;;;3.00;99.90;;;;;;5012860;28;20080;-80
2022/01/07 07:18:43;;;;;;;17.90;11.27;;;3.00;99.90;;;;;;5032487;28;20109;-80
2022/01/07 07:21:09;;;;;;;17.17;11.88;;;3.00;99.90;;;;;;5032925;28;20049;-81
2022/01/07 07:23:34;;;;;;;15.70;12.38;;;3.00;99.90;;;;;;5032719;28;20084;-80
2022/01/07 07:26:00;;;;;;;17.48;12.25;;;3.10;99.90;;;;;;5032484;28;20047;-81
2022/01/07 07:28:25;;;;;;;16.65;12.20;;;3.10;99.90;;;;;;5032449;28;20053;-81
2022/01/07 07:30:54;;;;;;;18.30;12.63;;;3.10;99.90;;;;;;5015934;28;20037;-81
2022/01/07 07:38:39;;;;;;;19.17;14.40;;;3.20;99.90;;;;;;5032406;28;20037;-80
2022/01/07 07:41:06;;;;;;;19.92;14.48;;;3.20;99.90;;;;;;5033285;28;20045;-81
2022/01/07 07:43:32;;;;;;;17.83;13.77;;;3.20;99.90;;;;;;5018060;28;20041;-81
2022/01/07 07:45:58;;;;;;;20.52;14.25;;;3.20;99.90;;;;;;5030552;28;20422;-80
2022/01/07 07:48:24;;;;;;;23.27;15.73;;;3.30;99.90;;;;;;5032724;28;20034;-82
2022/01/07 07:50:49;;;;;;;23.48;14.52;;;3.30;99.90;;;;;;5032865;28;20041;-81
2022/01/07 07:53:15;;;;;;;22.30;14.30;;;3.30;99.90;;;;;;5034173;28;20060;-80
2022/01/07 07:55:40;;;;;;;22.30;14.60;;;3.30;99.90;;;;;;5032193;28;20545;-80
2022/01/07 07:58:06;;;;;;;23.58;15.40;;;3.30;99.90;;;;;;5033074;28;20044;-80
2022/01/07 08:00:32;;;;;;;23.77;15.43;;;3.40;99.90;;;;;;5035889;28;20040;-81
2022/01/07 08:02:58;;;;;;;27.95;16.05;;;3.50;99.90;;;;;;5036176;28;20033;-82
2022/01/07 08:05:24;;;;;;;26.40;16.98;;;3.40;99.90;;;;;;5019730;28;20029;-80
2022/01/07 08:07:50;;;;;;;24.77;17.05;;;3.50;99.90;;;;;;5035265;28;20055;-80
2022/01/07 08:10:22;;;;;;;23.52;16.40;;;3.50;99.90;;;;;;5030248;28;20060;-81
2022/01/07 08:18:00;;;;;;;25.67;16.00;;;3.60;99.90;;;;;;5034487;28;20128;-80
2022/01/07 08:20:25;;;;;;;25.23;16.88;;;3.60;99.90;;;;;;5032607;28;20057;-81
2022/01/07 08:22:51;;;;;;;24.52;15.60;;;3.60;99.90;;;;;;5031233;28;20033;-81
2022/01/07 08:25:17;;;;;;;28.60;17.25;;;3.60;99.90;;;;;;5016591;28;20056;-81
2022/01/07 08:27:42;;;;;;;26.58;16.58;;;3.50;99.90;;;;;;5035820;28;20116;-81
2022/01/07 08:30:22;;;;;;;23.27;16.80;;;3.60;99.90;;;;;;5034412;28;20042;-81
2022/01/07 08:35:36;;;;;;;26.52;16.30;;;3.70;99.90;;;;;;5033072;28;20731;-79
2022/01/07 08:38:02;;;;;;;27.75;17.65;;;3.70;99.90;;;;;;5036073;28;20041;-80
2022/01/07 08:40:28;;;;;;;29.10;18.48;;;3.80;99.90;;;;;;5031511;28;20034;-80
2022/01/07 08:42:54;;;;;;;27.85;18.15;;;3.80;99.90;;;;;;5034834;28;20057;-80
2022/01/07 08:45:19;;;;;;;27.00;18.02;;;3.80;99.90;;;;;;5034802;28;20476;-81
2022/01/07 08:47:45;;;;;;;28.85;17.73;;;3.80;99.90;;;;;;5034532;28;20043;-81
2022/01/07 08:50:10;;;;;;;28.73;18.50;;;3.90;99.90;;;;;;5034391;28;20047;-81
2022/01/07 08:52:36;;;;;;;26.15;18.05;;;3.90;99.90;;;;;;5032266;28;20061;-80
2022/01/07 08:55:01;;;;;;;28.90;17.65;;;3.90;99.90;;;;;;5031858;28;20063;-80
2022/01/07 08:57:27;;;;;;;31.73;19.60;;;4.00;99.90;;;;;;5031143;28;20063;-81
2022/01/07 08:59:52;;;;;;;31.02;17.80;;;4.00;99.90;;;;;;5034961;28;20041;-79
2022/01/07 09:02:18;;;;;;;29.55;18.70;;;4.00;99.90;;;;;;5034883;28;20037;-79
2022/01/07 09:04:44;;;;;;;30.75;19.25;;;4.00;99.90;;;;;;5036180;28;20037;-80
2022/01/07 09:07:09;;;;;;;29.42;19.88;;;4.00;99.90;;;;;;5033560;28;20041;-80
2022/01/07 09:09:35;;;;;;;29.85;18.65;;;4.10;99.90;;;;;;5034233;28;20056;-80
2022/01/07 09:12:00;;;;;;;28.48;17.70;;;4.10;99.90;;;;;;5032729;28;20061;-80
2022/01/07 09:14:26;;;;;;;30.13;19.17;;;4.10;99.90;;;;;;5018349;28;20033;-80
2022/01/07 09:16:52;;;;;;;33.35;19.67;;;4.20;99.90;;;;;;5034884;28;20077;-80
2022/01/07 09:19:18;;;;;;;31.67;19.35;;;4.20;99.90;;;;;;5036858;28;20033;-80
2022/01/07 09:21:44;;;;;;;34.10;20.02;;;4.20;99.90;;;;;;5019402;28;20044;-80
2022/01/07 09:24:09;;;;;;;29.52;19.70;;;4.20;99.90;;;;;;5034139;28;20418;-80
2022/01/07 09:26:35;;;;;;;34.63;19.27;;;4.20;99.90;;;;;;5034597;28;20513;-80
2022/01/07 09:29:00;;;;;;;31.52;20.00;;;4.30;99.90;;;;;;5032237;28;20056;-81
2022/01/07 09:31:26;;;;;;;31.35;19.73;;;4.30;99.90;;;;;;5033268;28;20072;-81
2022/01/07 09:33:51;;;;;;;35.25;20.15;;;4.30;99.90;;;;;;5031803;28;20561;-81
2022/01/07 09:36:17;;;;;;;32.35;19.77;;;4.50;99.90;;;;;;5033083;28;20525;-80
2022/01/07 09:38:42;;;;;;;30.33;19.05;;;4.50;99.90;;;;;;5033287;28;20416;-80
2022/01/07 09:41:08;;;;;;;30.30;18.83;;;4.50;99.90;;;;;;5031660;28;20044;-80
2022/01/07 09:43:33;;;;;;;36.88;20.00;;;4.50;99.90;;;;;;5032571;28;20038;-80
2022/01/07 09:46:00;;;;;;;34.28;18.73;;;4.50;99.90;;;;;;5019956;28;20049;-80
2022/01/07 09:48:25;;;;;;;32.20;18.83;;;4.50;99.90;;;;;;5034108;28;20045;-81
2022/01/07 09:50:51;;;;;;;28.75;18.50;;;4.50;99.90;;;;;;5016235;28;20407;-81
2022/01/07 09:53:17;;;;;;;26.75;17.98;;;4.50;99.90;;;;;;5023002;28;20083;-81
2022/01/07 09:55:43;;;;;;;26.73;16.98;;;4.50;99.90;;;;;;5033095;28;20044;-80
2022/01/07 09:58:12;;;;;;;27.30;16.10;;;4.50;99.90;;;;;;5032409;28;20048;-81
2022/01/07 10:00:42;;;;;;;27.90;16.30;;;4.60;99.90;;;;;;5033356;28;20050;-81
2022/01/07 10:03:11;;;;;;;22.13;14.88;;;4.60;99.90;;;;;;5030353;28;20084;-81
2022/01/07 10:05:49;;;;;;;16.75;10.27;;;4.60;99.90;;;;;;5033433;28;20030;-80
2022/01/07 10:08:27;;;;;;;9.63;5.78;;;4.50;99.90;;;;;;5013808;28;20444;-82
2022/01/07 10:11:14;;;;;;;7.30;3.85;;;4.40;99.90;;;;;;5033601;28;20167;-80
2022/01/07 10:13:48;;;;;;;9.00;2.55;;;4.20;99.90;;;;;;5032769;28;20076;-81
2022/01/07 10:16:18;;;;;;;4.13;2.33;;;4.20;99.90;;;;;;5030870;28;20056;-82
2022/01/07 10:18:45;;;;;;;4.60;3.30;;;4.10;99.90;;;;;;5024351;28;20048;-80
2022/01/07 10:21:11;;;;;;;6.88;4.07;;;4.00;99.90;;;;;;5026908;28;20048;-80
2022/01/07 10:23:38;;;;;;;8.15;5.10;;;4.00;99.90;;;;;;5029057;28;20034;-80
2022/01/07 10:26:15;;;;;;;8.93;5.22;;;4.00;99.90;;;;;;5031341;28;20128;-80
2022/01/07 10:28:41;;;;;;;9.00;5.22;;;4.00;99.90;;;;;;5013625;28;20084;-81
2022/01/07 10:31:08;;;;;;;8.32;6.10;;;4.00;99.90;;;;;;5029585;28;20512;-81
2022/01/07 10:33:40;;;;;;;9.35;5.68;;;4.00;99.90;;;;;;5026138;28;20044;-80
2022/01/07 10:36:06;;;;;;;9.35;5.30;;;4.10;99.90;;;;;;5028135;28;20034;-81
2022/01/07 10:38:31;;;;;;;7.25;4.53;;;4.30;99.90;;;;;;5021739;28;20049;-80
2022/01/07 10:40:59;;;;;;;7.93;4.70;;;4.30;99.90;;;;;;5031299;28;20037;-81
2022/01/07 10:43:35;;;;;;;6.55;3.63;;;4.50;99.90;;;;;;5013787;28;20045;-81
2022/01/07 10:46:13;;;;;;;5.32;2.80;;;4.60;99.90;;;;;;5014135;28;20038;-80
2022/01/07 10:48:44;;;;;;;5.82;2.90;;;4.70;99.90;;;;;;5025529;28;20038;-81
2022/01/07 10:51:17;;;;;;;6.28;2.30;;;4.60;99.90;;;;;;5026832;28;20084;-81
2022/01/07 10:53:48;;;;;;;7.77;2.30;;;4.60;99.90;;;;;;5012802;28;20069;-81
2022/01/07 10:56:16;;;;;;;3.35;1.55;;;4.40;99.90;;;;;;5036115;28;20280;-81
2022/01/07 10:58:50;;;;;;;5.78;1.70;;;4.30;99.90;;;;;;5036851;28;20038;-81
2022/01/07 11:01:18;;;;;;;6.38;2.00;;;4.30;99.90;;;;;;5034288;28;20077;-80
2022/01/07 11:03:45;;;;;;;5.25;1.80;;;4.20;99.90;;;;;;5015654;28;20517;-81
2022/01/07 11:06:11;;;;;;;5.03;2.10;;;4.20;99.90;;;;;;5033121;28;20041;-80
2022/01/07 11:08:37;;;;;;;6.10;2.33;;;4.20;99.90;;;;;;5018028;28;20041;-81
2022/01/07 11:11:04;;;;;;;5.53;2.05;;;4.20;99.90;;;;;;5032812;28;20072;-81
2022/01/07 11:13:30;;;;;;;6.05;2.50;;;4.20;99.90;;;;;;5032558;28;20037;-82
2022/01/07 11:15:55;;;;;;;5.03;2.50;;;4.20;99.90;;;;;;5015152;28;20041;-80
2022/01/07 11:18:21;;;;;;;10.00;3.05;;;4.20;99.90;;;;;;5014547;28;20499;-81
2022/01/07 11:20:47;;;;;;;9.98;3.17;;;4.20;99.90;;;;;;5030363;28;20038;-80
2022/01/07 11:23:13;;;;;;;8.93;3.75;;;4.20;99.90;;;;;;5009427;28;20033;-81
2022/01/07 11:25:39;;;;;;;8.57;4.00;;;4.20;99.90;;;;;;5015494;28;20048;-81
2022/01/07 11:28:04;;;;;;;9.55;4.30;;;4.30;99.90;;;;;;5037488;28;20072;-80
2022/01/07 11:30:35;;;;;;;9.65;5.05;;;4.30;99.90;;;;;;5036503;28;20037;-80
2022/01/07 11:33:15;;;;;;;11.10;5.65;;;4.30;99.90;;;;;;5038780;28;20133;-81
2022/01/07 11:35:44;;;;;;;10.43;5.60;;;4.50;99.90;;;;;;5035459;28;20402;-80
2022/01/07 11:38:15;;;;;;;12.07;6.28;;;4.60;99.90;;;;;;5036061;28;20514;-82
2022/01/07 11:40:45;;;;;;;15.85;6.78;;;4.70;99.90;;;;;;5026618;28;20037;-80
2022/01/07 11:43:20;;;;;;;13.25;6.90;;;4.80;99.90;;;;;;5037301;28;20052;-80
2022/01/07 11:45:47;;;;;;;16.23;7.43;;;4.80;99.90;;;;;;5032678;28;20476;-81
2022/01/07 11:48:24;;;;;;;14.13;7.20;;;4.90;99.90;;;;;;5018790;28;20041;-81
2022/01/07 11:50:54;;;;;;;16.25;7.45;;;5.00;99.90;;;;;;5036339;28;20045;-80
2022/01/07 11:53:19;;;;;;;15.60;9.02;;;5.10;99.90;;;;;;5035820;28;20037;-80
2022/01/07 11:55:45;;;;;;;14.13;8.10;;;5.10;99.90;;;;;;5028359;28;20049;-80
2022/01/07 11:58:12;;;;;;;15.13;8.50;;;5.10;99.90;;;;;;5036735;28;20083;-81
2022/01/07 12:00:59;;;;;;;14.27;8.68;;;5.20;99.90;;;;;;5036921;28;20037;-80
2022/01/07 12:03:51;;;;;;;18.25;9.15;;;5.20;99.90;;;;;;5015903;28;20116;-80
2022/01/07 12:06:26;;;;;;;16.95;9.00;;;5.20;99.90;;;;;;5035871;28;20099;-79
2022/01/07 12:09:02;;;;;;;18.90;9.70;;;5.00;99.90;;;;;;5021084;28;20064;-81
2022/01/07 12:11:30;;;;;;;15.57;9.07;;;5.00;99.90;;;;;;5034225;28;20048;-81
2022/01/07 12:13:57;;;;;;;20.27;9.07;;;4.90;99.90;;;;;;5016927;28;20108;-81
2022/01/07 12:16:24;;;;;;;20.42;9.88;;;4.90;99.90;;;;;;5036087;28;20037;-79
2022/01/07 12:18:50;;;;;;;21.60;10.45;;;4.80;99.90;;;;;;5038058;28;20033;-80
2022/01/07 12:21:15;;;;;;;14.73;10.05;;;4.80;99.90;;;;;;5035498;28;20040;-81
2022/01/07 12:23:42;;;;;;;15.38;9.90;;;4.70;99.90;;;;;;5038296;28;20041;-81
2022/01/07 12:26:08;;;;;;;20.05;10.07;;;4.70;99.90;;;;;;5020216;28;20037;-80
2022/01/07 12:28:42;;;;;;;19.15;11.35;;;4.80;99.90;;;;;;5033198;28;20038;-80
2022/01/07 12:31:09;;;;;;;16.58;8.82;;;4.80;99.90;;;;;;5027168;28;20080;-80
2022/01/07 12:33:38;;;;;;;17.00;7.85;;;4.90;99.90;;;;;;5035170;28;20049;-80
2022/01/07 12:36:04;;;;;;;13.25;6.65;;;5.10;99.90;;;;;;5035059;28;20045;-81
2022/01/07 12:38:30;;;;;;;12.32;6.40;;;5.20;99.90;;;;;;5036895;28;20089;-80
2022/01/07 12:41:00;;;;;;;8.57;5.55;;;5.30;99.90;;;;;;5034053;28;20124;-81
2022/01/07 12:43:35;;;;;;;10.18;6.03;;;5.40;99.90;;;;;;5032856;28;20045;-81
2022/01/07 12:46:03;;;;;;;11.43;6.38;;;5.20;99.90;;;;;;5032304;28;20410;-81
2022/01/07 12:48:38;;;;;;;13.98;6.90;;;5.20;99.90;;;;;;5020879;28;20068;-80
2022/01/07 12:51:04;;;;;;;12.63;6.45;;;5.40;99.90;;;;;;5019111;28;20041;-80
2022/01/07 12:53:30;;;;;;;11.68;6.78;;;5.50;99.90;;;;;;5032617;28;20041;-80